NCAR-RAP Real-Time Weather Data

Output produced by METARs form (25 May 2015  21:17 UTC)
found at http://weather.rap.ucar.edu/surface/
 
Conditions at: KALB observed 25 May 2015  20:51 UTC
Temperature: 30.6°C (87°F)
Dewpoint: 13.9°C (57°F) [RH = 36%]
Pressure (altimeter): 30.06 inches Hg (1018.0 mb)
[Sea-level pressure: 1017.7 mb]
Winds: from the S (180 degrees) at 14 MPH (12 knots; 6.2 m/s)
gusting to 28 MPH (24 knots; 12.5 m/s)
Visibility: 10 or more miles (16+ km)
Ceiling: 18000 feet AGL
Clouds: few clouds at 8000 feet AGL
few clouds at 11000 feet AGL
broken clouds at 18000 feet AGL
Present Weather: no significant weather observed at this time
KALB 252051Z 18012G24KT 10SM FEW080 FEW110 BKN180 31/14 A3006 RMK AO2 SLP177 T03060139 56023

Conditions at: KALB observed 25 May 2015  19:51 UTC
Temperature: 30.6°C (87°F)
Dewpoint: 13.9°C (57°F) [RH = 36%]
Pressure (altimeter): 30.07 inches Hg (1018.4 mb)
[Sea-level pressure: 1018.1 mb]
Winds: from the S (180 degrees) at 16 MPH (14 knots; 7.3 m/s)
gusting to 24 MPH (21 knots; 10.9 m/s)
Visibility: 10 or more miles (16+ km)
Ceiling: at least 12,000 feet AGL
Clouds: few clouds at 8000 feet AGL
few clouds at 11000 feet AGL
scattered clouds at 18000 feet AGL
Present Weather: no significant weather observed at this time
KALB 251951Z 18014G21KT 10SM FEW080 FEW110 SCT180 31/14 A3007 RMK AO2 SLP181 T03060139

Conditions at: KALB observed 25 May 2015  18:51 UTC
Temperature: 27.8°C (82°F)
Dewpoint: 13.9°C (57°F) [RH = 43%]
Pressure (altimeter): 30.10 inches Hg (1019.4 mb)
[Sea-level pressure: 1019.1 mb]
Winds: from the SSE (150 degrees) at 14 MPH (12 knots; 6.2 m/s)
Visibility: 10 or more miles (16+ km)
Ceiling: 18000 feet AGL
Clouds: few clouds at 8000 feet AGL
scattered clouds at 13000 feet AGL
broken clouds at 18000 feet AGL
Present Weather: no significant weather observed at this time
KALB 251851Z 15012KT 10SM FEW080 SCT130 BKN180 28/14 A3010 RMK AO2 SLP191 T02780139

Conditions at: KALB observed 25 May 2015  17:51 UTC
Temperature: 26.7°C (80°F)
Dewpoint: 12.2°C (54°F) [RH = 41%]
Pressure (altimeter): 30.13 inches Hg (1020.4 mb)
[Sea-level pressure: 1020.0 mb]
Winds: from the S (170 degrees) at 12 MPH (10 knots; 5.2 m/s)
gusting to 23 MPH (20 knots; 10.4 m/s)
Visibility: 10 or more miles (16+ km)
Ceiling: 13000 feet AGL
Clouds: few clouds at 8000 feet AGL
broken clouds at 13000 feet AGL
broken clouds at 18000 feet AGL
Present Weather: no significant weather observed at this time
KALB 251751Z 17010G20KT 10SM FEW080 BKN130 BKN180 27/12 A3013 RMK AO2 SLP200 60000 T02670122 10272 20172 58029

Conditions at: KALB observed 25 May 2015  16:51 UTC
Temperature: 24.4°C (76°F)
Dewpoint: 10.0°C (50°F) [RH = 40%]
Pressure (altimeter): 30.17 inches Hg (1021.8 mb)
[Sea-level pressure: 1021.4 mb]
Winds: from the S (170 degrees) at 12 MPH (10 knots; 5.2 m/s)
gusting to 18 MPH (16 knots; 8.3 m/s)
Visibility: 10 or more miles (16+ km)
Ceiling: 13000 feet AGL
Clouds: scattered clouds at 8500 feet AGL
broken clouds at 13000 feet AGL
broken clouds at 17000 feet AGL
Present Weather: no significant weather observed at this time
KALB 251651Z 17010G16KT 10SM SCT085 BKN130 BKN170 24/10 A3017 RMK AO2 SLP214 T02440100

Conditions at: KALB observed 25 May 2015  15:51 UTC
Temperature: 22.8°C (73°F)
Dewpoint: 10.0°C (50°F) [RH = 44%]
Pressure (altimeter): 30.21 inches Hg (1023.1 mb)
[Sea-level pressure: 1022.9 mb]
Winds: from the SSE (160 degrees) at 10 MPH (9 knots; 4.7 m/s)
Visibility: 10 or more miles (16+ km)
Ceiling: 15000 feet AGL
Clouds: few clouds at 8500 feet AGL
scattered clouds at 10000 feet AGL
overcast cloud deck at 15000 feet AGL
Present Weather: no significant weather observed at this time
KALB 251551Z 16009KT 10SM FEW085 SCT100 OVC150 23/10 A3021 RMK AO2 SLP229 BINOVC T02280100

Conditions at: KALB observed 25 May 2015  14:51 UTC
Temperature: 20.6°C (69°F)
Dewpoint: 10.0°C (50°F) [RH = 51%]
Pressure (altimeter): 30.21 inches Hg (1023.1 mb)
[Sea-level pressure: 1023.1 mb]
Winds: from the SSE (160 degrees) at 10 MPH (9 knots; 4.7 m/s)
Visibility: 10 or more miles (16+ km)
Ceiling: 10000 feet AGL
Clouds: broken clouds at 10000 feet AGL
overcast cloud deck at 14000 feet AGL
Present Weather: no significant weather observed at this time
KALB 251451Z 16009KT 10SM BKN100 OVC140 21/10 A3021 RMK AO2 SLP231 BINOVC 60000 T02060100 58009

Conditions at: KALB observed 25 May 2015  13:51 UTC
Temperature: 18.9°C (66°F)
Dewpoint: 9.4°C (49°F) [RH = 54%]
Pressure (altimeter): 30.23 inches Hg (1023.8 mb)
[Sea-level pressure: 1023.8 mb]
Winds: from the S (170 degrees) at 5 MPH (4 knots; 2.1 m/s)
Visibility: 10 or more miles (16+ km)
Ceiling: 9000 feet AGL
Clouds: broken clouds at 9000 feet AGL
overcast cloud deck at 11000 feet AGL
Present Weather: no significant weather observed at this time
KALB 251351Z 17004KT 10SM BKN090 OVC110 19/09 A3023 RMK AO2 RAE42 SLP238 P0000 T01890094

Conditions at: KALB observed 25 May 2015  12:51 UTC
Temperature: 18.3°C (65°F)
Dewpoint: 10.6°C (51°F) [RH = 61%]
Pressure (altimeter): 30.24 inches Hg (1024.1 mb)
[Sea-level pressure: 1024.1 mb]
Winds: from the SSW (210 degrees) at 6 MPH (5 knots; 2.6 m/s)
Visibility: 10 or more miles (16+ km)
Ceiling: 9000 feet AGL
Clouds: broken clouds at 9000 feet AGL
overcast cloud deck at 11000 feet AGL
Present Weather: -RA  (light rain)
KALB 251251Z 21005KT 10SM -RA BKN090 OVC110 18/11 A3024 RMK AO2 SLP241 PCPN VRY LGT P0000 T01830106

Conditions at: KALB observed 25 May 2015  11:51 UTC
Temperature: 17.2°C (63°F)
Dewpoint: 9.4°C (49°F) [RH = 60%]
Pressure (altimeter): 30.24 inches Hg (1024.1 mb)
[Sea-level pressure: 1023.9 mb]
Winds: variable direction winds at 3 MPH (3 knots; 1.6 m/s)
Visibility: 10 or more miles (16+ km)
Ceiling: 10000 feet AGL
Clouds: few clouds at 6500 feet AGL
overcast cloud deck at 10000 feet AGL
Present Weather: -RA  (light rain)
KALB 251151Z VRB03KT 10SM -RA FEW065 OVC100 17/09 A3024 RMK AO2 SLP239 PCPN VRY LGT P0000 60000 T01720094 10178 20167 51010

Conditions at: KALB observed 25 May 2015  10:51 UTC
Temperature: 16.7°C (62°F)
Dewpoint: 8.9°C (48°F) [RH = 60%]
Pressure (altimeter): 30.24 inches Hg (1024.1 mb)
[Sea-level pressure: 1023.8 mb]
Winds: from the S (170 degrees) at 7 MPH (6 knots; 3.1 m/s)
Visibility: 10 or more miles (16+ km)
Ceiling: 10000 feet AGL
Clouds: scattered clouds at 7000 feet AGL
overcast cloud deck at 10000 feet AGL
Present Weather: -RA  (light rain)
KALB 251051Z 17006KT 10SM -RA SCT070 OVC100 17/09 A3024 RMK AO2 SLP238 PCPN VRY LGT P0000 T01670089

Conditions at: KALB observed 25 May 2015  09:51 UTC
Temperature: 16.7°C (62°F)
Dewpoint: 8.3°C (47°F) [RH = 58%]
Pressure (altimeter): 30.23 inches Hg (1023.8 mb)
[Sea-level pressure: 1023.6 mb]
Winds: from the S (190 degrees) at 7 MPH (6 knots; 3.1 m/s)
Visibility: 10 or more miles (16+ km)
Ceiling: 9500 feet AGL
Clouds: scattered clouds at 7500 feet AGL
broken clouds at 9500 feet AGL
overcast cloud deck at 11000 feet AGL
Present Weather: -RA  (light rain)
KALB 250951Z 19006KT 10SM -RA SCT075 BKN095 OVC110 17/08 A3023 RMK AO2 RAB33 SLP236 P0000 T01670083